Time;durP1;ratioP1;P1;durP2;ratioP2;P2;SDS_P1;SDS_P2;PMS_P1;PMS_P2;Temp;Humidity;BMP_temperature;BMP_pressure;BME280_temperature;BME280_humidity;BME280_pressure;Samples;Min_cycle;Max_cycle;Signal;HPM_P1;HPM_P2
2021/12/27 00:01:20;;;;;;;31.42;24.33;;;;;;;-0.18;100.00;94879.72;6178129;23;20024;-69
2021/12/27 00:03:49;;;;;;;27.67;23.20;;;;;;;-0.15;100.00;94876.94;6178024;23;20009;-69
2021/12/27 00:06:15;;;;;;;29.10;21.65;;;;;;;-0.09;100.00;94881.75;6177676;23;20005;-69
2021/12/27 00:08:42;;;;;;;27.23;22.02;;;;;;;-0.13;100.00;94871.69;6176671;22;20082;-69
2021/12/27 00:11:09;;;;;;;27.17;22.08;;;;;;;-0.15;100.00;94879.53;6153561;22;20455;-68
2021/12/27 00:13:35;;;;;;;27.88;21.80;;;;;;;-0.16;100.00;94878.72;6179613;23;20033;-68
2021/12/27 00:16:01;;;;;;;26.23;22.15;;;;;;;-0.15;100.00;94879.53;6179644;22;20016;-67
2021/12/27 00:18:26;;;;;;;29.65;23.30;;;;;;;-0.06;100.00;94876.38;6179731;23;20005;-68
2021/12/27 00:20:51;;;;;;;49.85;32.78;;;;;;;-0.07;100.00;94859.19;6179611;23;20001;-68
2021/12/27 00:23:17;;;;;;;57.75;33.20;;;;;;;-0.08;100.00;94856.69;6153138;23;20027;-68
2021/12/27 00:25:42;;;;;;;37.90;28.88;;;;;;;-0.14;100.00;94865.66;6179342;23;19997;-68
2021/12/27 00:28:07;;;;;;;36.03;27.17;;;;;;;-0.16;100.00;94862.34;6179546;23;20008;-68
2021/12/27 00:30:33;;;;;;;33.50;25.50;;;;;;;-0.16;100.00;94859.75;6179557;23;20004;-68
2021/12/27 00:32:58;;;;;;;30.17;23.63;;;;;;;-0.08;100.00;94857.53;6179405;23;20468;-68
2021/12/27 00:35:26;;;;;;;30.10;23.63;;;;;;;-0.09;100.00;94861.03;6179603;23;20079;-68
2021/12/27 00:37:51;;;;;;;31.08;23.50;;;;;;;-0.15;100.00;94851.06;6179682;23;20048;-67
2021/12/27 00:40:17;;;;;;;27.65;22.38;;;;;;;-0.18;100.00;94853.84;6179463;23;20059;-68
2021/12/27 00:42:43;;;;;;;30.80;24.92;;;;;;;-0.17;100.00;94845.16;6179436;23;20024;-68
2021/12/27 00:45:09;;;;;;;25.67;21.65;;;;;;;-0.16;100.00;94841.63;6153295;23;20008;-68
2021/12/27 00:47:35;;;;;;;28.15;23.13;;;;;;;-0.17;100.00;94845.16;6179661;22;20001;-68
2021/12/27 00:50:01;;;;;;;26.25;21.45;;;;;;;-0.16;100.00;94846.81;6179302;23;20012;-68
2021/12/27 00:52:27;;;;;;;27.63;21.00;;;;;;;-0.15;100.00;94845.88;6179484;23;20343;-68
2021/12/27 00:54:52;;;;;;;23.40;20.88;;;;;;;-0.18;100.00;94841.75;6179511;23;20011;-68
2021/12/27 00:57:18;;;;;;;26.10;22.17;;;;;;;-0.18;100.00;94838.31;6179351;23;20005;-68
2021/12/27 00:59:43;;;;;;;26.38;22.85;;;;;;;-0.20;100.00;94835.00;6179416;23;20432;-68
2021/12/27 01:02:09;;;;;;;27.75;21.38;;;;;;;-0.19;100.00;94841.84;6179397;23;20406;-67
2021/12/27 01:04:34;;;;;;;28.05;20.27;;;;;;;-0.17;100.00;94837.38;6179326;23;20025;-68
2021/12/27 01:06:59;;;;;;;25.80;18.90;;;;;;;-0.06;100.00;94842.72;6178737;23;20016;-68
2021/12/27 01:09:37;;;;;;;25.88;21.15;;;;;;;-0.10;100.00;94836.09;6179195;23;20058;-67
2021/12/27 01:15:06;;;;;;;30.92;25.05;;;;;;;-0.23;100.00;94835.19;6179180;23;20479;-68
2021/12/27 01:17:32;;;;;;;26.00;19.88;;;;;;;-0.21;100.00;94833.34;6179520;23;20072;-68
2021/12/27 01:19:57;;;;;;;22.27;19.27;;;;;;;-0.16;100.00;94832.13;6152905;23;20031;-68
2021/12/27 01:22:23;;;;;;;25.15;21.38;;;;;;;-0.09;100.00;94832.56;6179073;23;20012;-68
2021/12/27 01:24:48;;;;;;;23.80;18.05;;;;;;;-0.05;100.00;94820.25;6179332;23;20006;-68
2021/12/27 01:27:13;;;;;;;23.20;16.52;;;;;;;0.00;100.00;94828.56;6179473;23;20005;-68
2021/12/27 01:29:39;;;;;;;30.13;17.77;;;;;;;-0.04;100.00;94827.94;6179398;23;20073;-67
2021/12/27 01:32:05;;;;;;;23.40;17.60;;;;;;;-0.07;100.00;94827.28;6179033;23;20001;-68
2021/12/27 01:34:32;;;;;;;23.92;18.25;;;;;;;-0.11;100.00;94831.00;6179197;23;20049;-68
2021/12/27 01:36:57;;;;;;;25.00;18.48;;;;;;;-0.18;100.00;94828.81;6179275;23;20001;-68
2021/12/27 01:39:23;;;;;;;22.35;18.65;;;;;;;-0.18;100.00;94825.38;6179129;23;20583;-68
2021/12/27 01:41:49;;;;;;;31.25;21.80;;;;;;;-0.17;100.00;94821.88;6178003;22;20001;-68
2021/12/27 01:44:14;;;;;;;45.95;30.67;;;;;;;-0.21;100.00;94823.84;6152114;23;20318;-68
2021/12/27 01:46:40;;;;;;;41.80;28.33;;;;;;;-0.19;100.00;94826.31;6179236;23;20087;-68
2021/12/27 01:49:07;;;;;;;37.63;25.15;;;;;;;-0.16;100.00;94821.78;6179382;23;20001;-69
2021/12/27 01:51:38;;;;;;;48.53;27.52;;;;;;;-0.14;100.00;94813.91;6179160;23;20057;-68
2021/12/27 01:54:04;;;;;;;33.88;24.55;;;;;;;-0.17;100.00;94819.28;6179025;23;20009;-68
2021/12/27 01:56:30;;;;;;;35.05;25.85;;;;;;;-0.19;100.00;94815.97;6179271;23;20009;-68
2021/12/27 01:58:58;;;;;;;34.90;24.02;;;;;;;-0.21;100.00;94810.06;6179468;23;20001;-68
2021/12/27 02:01:24;;;;;;;29.38;24.52;;;;;;;-0.21;100.00;94815.22;6179114;23;20001;-68
2021/12/27 02:03:52;;;;;;;27.08;20.88;;;;;;;-0.18;100.00;94804.69;6178775;23;20463;-68
2021/12/27 02:06:18;;;;;;;25.95;19.30;;;;;;;-0.14;100.00;94808.72;6179083;23;20373;-68
2021/12/27 02:08:44;;;;;;;23.60;18.75;;;;;;;-0.06;100.00;94800.47;6179015;23;20072;-69
2021/12/27 02:11:11;;;;;;;21.55;17.63;;;;;;;-0.07;100.00;94807.44;6152763;23;20042;-70
2021/12/27 02:13:42;;;;;;;20.52;17.25;;;;;;;-0.08;100.00;94799.75;6152866;23;20001;-68
2021/12/27 02:16:09;;;;;;;21.15;17.58;;;;;;;-0.11;100.00;94795.63;6153047;22;20005;-68
2021/12/27 02:18:37;;;;;;;19.20;16.60;;;;;;;-0.16;100.00;94795.91;6152674;23;20012;-68
2021/12/27 02:21:03;;;;;;;16.20;14.48;;;;;;;-0.18;100.00;94791.75;6152491;23;20001;-69
2021/12/27 02:23:28;;;;;;;16.23;14.50;;;;;;;-0.17;100.00;94780.47;6178956;23;20016;-68
2021/12/27 02:25:54;;;;;;;17.90;14.35;;;;;;;-0.16;100.00;94772.63;6179149;23;20001;-68
2021/12/27 02:28:20;;;;;;;19.42;14.52;;;;;;;0.06;100.00;94767.78;6178912;23;20076;-68
2021/12/27 02:30:48;;;;;;;19.63;14.65;;;;;;;-0.01;100.00;94767.34;6178960;23;20359;-68
2021/12/27 02:33:14;;;;;;;19.58;16.30;;;;;;;-0.04;100.00;94763.22;6178452;23;20028;-68
2021/12/27 02:35:48;;;;;;;18.27;15.00;;;;;;;-0.05;100.00;94756.41;6178882;23;20028;-68
2021/12/27 02:38:20;;;;;;;18.90;16.60;;;;;;;-0.11;100.00;94753.38;6152393;23;20040;-68
2021/12/27 02:40:46;;;;;;;19.95;16.65;;;;;;;-0.15;100.00;94756.16;6178768;22;20438;-68
2021/12/27 02:43:17;;;;;;;18.23;15.57;;;;;;;-0.13;100.00;94752.66;6178836;23;20033;-68
2021/12/27 02:45:46;;;;;;;21.48;16.55;;;;;;;-0.18;100.00;94748.59;6179056;23;20318;-68
2021/12/27 02:48:13;;;;;;;17.15;14.70;;;;;;;-0.17;100.00;94747.69;6178768;23;20055;-68
2021/12/27 02:50:41;;;;;;;15.95;14.32;;;;;;;-0.14;100.00;94756.97;6179161;23;20432;-68
2021/12/27 02:53:07;;;;;;;15.98;14.30;;;;;;;0.27;100.00;94743.06;6152871;23;20449;-68
2021/12/27 02:55:34;;;;;;;18.55;15.30;;;;;;;0.13;100.00;94744.00;6178980;23;20029;-68
2021/12/27 02:57:59;;;;;;;36.38;23.35;;;;;;;0.26;100.00;94741.41;6178887;23;20001;-68
2021/12/27 03:00:29;;;;;;;33.13;25.10;;;;;;;0.16;100.00;94735.22;6178636;23;20009;-68
2021/12/27 03:02:56;;;;;;;24.05;19.70;;;;;;;0.07;100.00;94739.22;6178877;23;20006;-68
2021/12/27 03:05:25;;;;;;;22.92;19.00;;;;;;;-0.01;100.00;94734.56;6262839;22;20026;-68
2021/12/27 03:07:51;;;;;;;22.95;18.23;;;;;;;-0.03;100.00;94744.19;6305050;22;20007;-68
2021/12/27 03:10:21;;;;;;;22.58;17.48;;;;;;;-0.07;100.00;94734.97;6304832;22;19999;-68
2021/12/27 03:12:48;;;;;;;25.02;17.80;;;;;;;-0.08;100.00;94735.91;6304989;22;20439;-68
2021/12/27 03:15:16;;;;;;;21.33;17.35;;;;;;;-0.02;100.00;94735.50;6304841;22;20429;-68
2021/12/27 03:17:46;;;;;;;27.85;18.58;;;;;;;-0.03;100.00;94736.41;6305042;22;19999;-68
2021/12/27 03:20:13;;;;;;;22.98;16.77;;;;;;;-0.06;100.00;94733.19;6305099;22;20003;-68
2021/12/27 03:22:43;;;;;;;24.45;17.20;;;;;;;-0.04;100.00;94726.16;6305080;22;19999;-68
2021/12/27 03:25:11;;;;;;;23.65;14.98;;;;;;;-0.04;100.00;94724.41;6304644;22;20014;-68
2021/12/27 03:27:37;;;;;;;19.60;14.43;;;;;;;-0.05;100.00;94716.72;6305091;22;20007;-68
2021/12/27 03:30:09;;;;;;;20.85;14.90;;;;;;;-0.03;100.00;94709.69;6305020;22;20003;-68
2021/12/27 03:32:36;;;;;;;17.63;12.77;;;;;;;-0.05;100.00;94699.47;6304882;22;20461;-68
2021/12/27 03:35:10;;;;;;;18.45;11.73;;;;;;;-0.03;100.00;94700.19;6304804;22;20053;-68
2021/12/27 03:37:37;;;;;;;18.10;12.00;;;;;;;-0.02;100.00;94694.09;6304850;22;19999;-68
2021/12/27 03:40:05;;;;;;;18.85;12.95;;;;;;;-0.05;100.00;94693.44;6304876;22;19995;-68
2021/12/27 03:42:31;;;;;;;20.05;12.07;;;;;;;-0.04;100.00;94695.09;6304646;22;20082;-69
2021/12/27 03:44:57;;;;;;;17.48;12.00;;;;;;;-0.05;100.00;94689.13;6306386;22;20019;-68
2021/12/27 03:47:22;;;;;;;19.10;14.13;;;;;;;-0.05;100.00;94683.94;6306577;22;19999;-68
2021/12/27 03:49:47;;;;;;;16.83;13.75;;;;;;;-0.01;100.00;94685.38;6305262;22;20003;-68
2021/12/27 03:52:13;;;;;;;14.35;12.50;;;;;;;-0.01;100.00;94680.22;6306804;22;20129;-68
2021/12/27 03:54:38;;;;;;;17.15;12.65;;;;;;;-0.02;100.00;94686.31;6307067;22;20007;-68
2021/12/27 03:57:04;;;;;;;13.80;11.70;;;;;;;-0.01;100.00;94685.38;6306712;22;20045;-68
2021/12/27 04:02:11;;;;;;;10.90;9.77;;;;;;;-0.02;100.00;94686.31;6307021;22;20021;-68
2021/12/27 04:04:38;;;;;;;14.00;11.48;;;;;;;0.02;100.00;94688.69;6251434;22;20353;-68
2021/12/27 04:07:04;;;;;;;12.98;10.52;;;;;;;0.05;100.00;94685.91;6179560;23;20025;-68
2021/12/27 04:09:29;;;;;;;13.90;10.30;;;;;;;0.07;100.00;94678.84;6179851;23;20013;-68
2021/12/27 04:11:55;;;;;;;15.10;10.32;;;;;;;0.06;100.00;94677.22;6179509;23;20012;-68
2021/12/27 04:14:21;;;;;;;13.13;10.07;;;;;;;-0.01;100.00;94675.03;6179791;23;20045;-68
2021/12/27 04:16:46;;;;;;;11.15;9.57;;;;;;;-0.02;100.00;94669.94;6179569;23;20015;-68
2021/12/27 04:19:13;;;;;;;12.50;10.13;;;;;;;-0.03;100.00;94665.72;6179672;23;20051;-68
2021/12/27 04:21:39;;;;;;;10.30;9.30;;;;;;;0.01;100.00;94671.50;6179734;23;20009;-68
2021/12/27 04:24:04;;;;;;;11.18;9.18;;;;;;;0.07;100.00;94668.50;6179475;23;20447;-68
2021/12/27 04:26:30;;;;;;;10.98;9.77;;;;;;;0.10;100.00;94656.19;6179632;23;20009;-68
2021/12/27 04:28:55;;;;;;;11.27;9.43;;;;;;;0.11;100.00;94657.84;6179250;23;20032;-68
2021/12/27 04:31:21;;;;;;;11.60;9.65;;;;;;;0.12;100.00;94661.28;6179696;23;20001;-68
2021/12/27 04:33:47;;;;;;;16.70;12.05;;;;;;;0.10;100.00;94663.13;6179223;23;20008;-68
2021/12/27 04:36:12;;;;;;;13.88;12.07;;;;;;;0.50;100.00;94652.63;6179507;23;20005;-68
2021/12/27 04:38:38;;;;;;;10.85;9.73;;;;;;;0.35;100.00;94664.06;6178140;22;20038;-68
2021/12/27 04:41:06;;;;;;;13.65;11.52;;;;;;;0.25;100.00;94664.69;6179420;23;20009;-68
2021/12/27 04:43:32;;;;;;;11.77;10.57;;;;;;;0.22;100.00;94657.13;6179367;23;20009;-68
2021/12/27 04:45:58;;;;;;;10.38;9.23;;;;;;;0.21;100.00;94662.41;6179395;23;20001;-68
2021/12/27 04:48:25;;;;;;;9.88;8.98;;;;;;;0.20;100.00;94650.38;6179159;23;20076;-68
2021/12/27 04:50:52;;;;;;;10.50;9.32;;;;;;;0.20;100.00;94655.56;6179602;23;20012;-68
2021/12/27 04:53:17;;;;;;;10.43;9.32;;;;;;;0.21;100.00;94652.88;6179587;23;20012;-68
2021/12/27 04:55:46;;;;;;;11.02;8.50;;;;;;;0.21;100.00;94652.03;6153098;22;20361;-68
2021/12/27 04:58:15;;;;;;;8.75;7.85;;;;;;;0.24;100.00;94651.84;6179352;23;20001;-68
2021/12/27 05:00:41;;;;;;;11.23;9.25;;;;;;;0.21;100.00;94647.69;6178919;23;20033;-68
2021/12/27 05:03:06;;;;;;;11.13;9.07;;;;;;;0.30;100.00;94645.41;6179266;23;20028;-68
2021/12/27 05:05:32;;;;;;;8.77;7.88;;;;;;;0.30;100.00;94645.41;6178831;23;20150;-68
2021/12/27 05:07:59;;;;;;;11.77;8.75;;;;;;;0.23;100.00;94640.66;6179653;23;20015;-68
2021/12/27 05:10:29;;;;;;;10.57;8.27;;;;;;;0.26;100.00;94642.22;6179123;23;20402;-68
2021/12/27 05:12:55;;;;;;;9.25;8.32;;;;;;;0.27;100.00;94636.09;6179380;23;20002;-68
2021/12/27 05:15:21;;;;;;;13.10;9.48;;;;;;;0.23;100.00;94640.66;6152748;23;20041;-68
2021/12/27 05:17:47;;;;;;;11.05;8.85;;;;;;;0.23;100.00;94629.50;6179371;23;20013;-68
2021/12/27 05:20:12;;;;;;;9.27;7.97;;;;;;;0.21;100.00;94645.13;6178951;23;20005;-68
2021/12/27 05:22:38;;;;;;;10.55;8.20;;;;;;;0.19;100.00;94630.59;6179203;23;20005;-68
2021/12/27 05:25:05;;;;;;;9.98;7.78;;;;;;;0.13;100.00;94621.53;6179199;23;20005;-68
2021/12/27 05:27:30;;;;;;;8.45;7.65;;;;;;;0.11;100.00;94620.78;6179353;23;20080;-68
2021/12/27 05:29:56;;;;;;;9.25;8.35;;;;;;;0.08;100.00;94608.88;6178813;23;20394;-68
2021/12/27 05:32:22;;;;;;;9.20;8.30;;;;;;;0.10;100.00;94619.13;6152928;23;20001;-68
2021/12/27 05:34:47;;;;;;;7.72;7.03;;;;;;;0.12;100.00;94618.09;6179093;23;20033;-68
2021/12/27 05:37:13;;;;;;;8.80;7.90;;;;;;;0.10;100.00;94619.97;6179217;23;20374;-68
2021/12/27 05:39:38;;;;;;;11.32;9.25;;;;;;;0.14;100.00;94626.56;6179068;23;19997;-67
2021/12/27 05:42:04;;;;;;;16.40;9.85;;;;;;;0.20;100.00;94617.56;6179147;23;20041;-68
2021/12/27 05:44:30;;;;;;;11.52;9.75;;;;;;;0.20;100.00;94620.16;6179029;23;20032;-68
2021/12/27 05:46:55;;;;;;;10.15;9.15;;;;;;;0.20;100.00;94620.16;6179504;23;20421;-68
2021/12/27 05:49:22;;;;;;;11.63;10.40;;;;;;;0.22;100.00;94615.72;6179600;23;20001;-68
2021/12/27 05:51:47;;;;;;;13.25;10.57;;;;;;;0.19;100.00;94610.75;6179595;23;20387;-68
2021/12/27 05:54:13;;;;;;;12.48;10.10;;;;;;;0.21;100.00;94623.56;6178840;23;20043;-68
2021/12/27 05:56:45;;;;;;;11.40;10.20;;;;;;;0.19;100.00;94621.09;6179168;23;20033;-68
2021/12/27 05:59:12;;;;;;;12.35;10.82;;;;;;;0.20;100.00;94614.97;6179291;23;20016;-68
2021/12/27 06:01:38;;;;;;;13.85;10.82;;;;;;;0.17;100.00;94616.94;6179107;23;20004;-68
2021/12/27 06:04:03;;;;;;;12.02;10.82;;;;;;;0.15;100.00;94619.66;6178806;23;20489;-68
2021/12/27 06:06:29;;;;;;;13.90;11.15;;;;;;;0.19;100.00;94615.91;6178993;23;20012;-67
2021/12/27 06:08:54;;;;;;;11.15;10.05;;;;;;;0.22;100.00;94604.50;6178561;23;20004;-68
2021/12/27 06:11:20;;;;;;;9.50;8.60;;;;;;;0.27;100.00;94600.69;6179072;23;20483;-68
2021/12/27 06:13:46;;;;;;;13.93;10.57;;;;;;;0.25;100.00;94599.16;6178816;23;20506;-68
2021/12/27 06:16:12;;;;;;;12.35;10.02;;;;;;;0.23;100.00;94603.59;6178931;23;20009;-68
2021/12/27 06:18:37;;;;;;;10.98;9.90;;;;;;;0.22;100.00;94600.16;6179277;23;20467;-68
2021/12/27 06:21:04;;;;;;;10.75;9.25;;;;;;;0.23;100.00;94588.88;6178432;23;20451;-68
2021/12/27 06:23:33;;;;;;;13.68;12.23;;;;;;;0.25;100.00;94596.56;6179042;23;20077;-67
2021/12/27 06:25:59;;;;;;;17.60;15.77;;;;;;;0.26;100.00;94593.03;6179017;23;20451;-68
2021/12/27 06:28:27;;;;;;;17.15;13.63;;;;;;;0.25;100.00;94601.72;6178783;23;20008;-68
2021/12/27 06:30:52;;;;;;;41.33;28.83;;;;;;;0.30;100.00;94594.47;6178605;23;20471;-68
2021/12/27 06:33:18;;;;;;;62.75;37.85;;;;;;;0.34;100.00;94589.91;6178826;23;20092;-68
2021/12/27 06:35:43;;;;;;;24.27;20.88;;;;;;;0.33;100.00;94588.22;6178818;23;20072;-68
2021/12/27 06:38:09;;;;;;;29.17;20.92;;;;;;;0.33;100.00;94580.47;6178917;23;20349;-68
2021/12/27 06:40:35;;;;;;;32.85;24.67;;;;;;;0.29;100.00;94582.47;6178825;23;20001;-68
2021/12/27 06:43:00;;;;;;;35.33;24.92;;;;;;;0.28;100.00;94571.25;6178928;23;20456;-68
2021/12/27 06:45:26;;;;;;;26.40;22.50;;;;;;;0.31;100.00;94566.81;6178355;23;20036;-68
2021/12/27 06:47:52;;;;;;;41.85;33.92;;;;;;;0.31;100.00;94564.22;6178960;23;20005;-68
2021/12/27 06:50:17;;;;;;;37.05;32.83;;;;;;;0.38;100.00;94561.09;6178917;23;20008;-68
2021/12/27 06:52:44;;;;;;;34.95;30.27;;;;;;;0.38;100.00;94566.28;6178822;23;20005;-68
2021/12/27 06:55:11;;;;;;;32.65;26.98;;;;;;;0.36;100.00;94564.75;6179342;22;20349;-68
2021/12/27 06:57:37;;;;;;;35.30;27.40;;;;;;;0.33;100.00;94560.59;6152389;22;20011;-68
2021/12/27 07:00:06;;;;;;;31.50;27.00;;;;;;;0.33;100.00;94550.22;6178804;23;20001;-68
2021/12/27 07:02:32;;;;;;;27.58;24.67;;;;;;;0.33;100.00;94558.00;6178722;23;20009;-68
2021/12/27 07:04:58;;;;;;;27.20;24.17;;;;;;;0.34;100.00;94538.94;6178678;23;20484;-68
2021/12/27 07:07:24;;;;;;;27.05;23.02;;;;;;;0.32;100.00;94527.88;6178496;23;20005;-68
2021/12/27 07:09:49;;;;;;;25.83;22.58;;;;;;;0.30;100.00;94537.50;6178660;23;20035;-68
2021/12/27 07:12:15;;;;;;;25.75;21.83;;;;;;;0.33;100.00;94531.28;6178526;23;20001;-68
2021/12/27 07:14:41;;;;;;;25.90;23.23;;;;;;;0.35;100.00;94534.59;6178647;23;20013;-68
2021/12/27 07:17:06;;;;;;;23.92;21.40;;;;;;;0.40;100.00;94520.38;6178660;23;20029;-68
2021/12/27 07:19:32;;;;;;;24.48;21.13;;;;;;;0.46;100.00;94526.88;6180868;23;20054;-68
2021/12/27 07:21:57;;;;;;;26.15;20.83;;;;;;;0.43;100.00;94521.94;6181945;23;20001;-68
2021/12/27 07:24:23;;;;;;;22.48;20.17;;;;;;;0.43;100.00;94529.69;6181741;23;20005;-68
2021/12/27 07:26:48;;;;;;;30.20;27.08;;;;;;;0.51;100.00;94529.16;6181839;23;20009;-67
2021/12/27 07:29:14;;;;;;;27.38;24.73;;;;;;;0.53;100.00;94522.09;6181277;23;20120;-71
2021/12/27 07:31:39;;;;;;;27.17;23.60;;;;;;;0.52;100.00;94529.03;6181813;23;20001;-68
2021/12/27 07:34:05;;;;;;;29.63;26.77;;;;;;;0.56;100.00;94522.72;6181386;23;20478;-67
2021/12/27 07:36:32;;;;;;;41.17;33.33;;;;;;;0.58;100.00;94517.41;6181676;23;20016;-67
2021/12/27 07:38:57;;;;;;;66.15;46.03;;;;;;;0.58;100.00;94530.38;6181809;23;20001;-67
2021/12/27 07:41:23;;;;;;;48.38;35.80;;;;;;;0.59;100.00;94532.03;6181929;23;20381;-68
2021/12/27 07:43:49;;;;;;;27.17;23.30;;;;;;;0.65;100.00;94530.75;6180262;23;20005;-66
2021/12/27 07:46:14;;;;;;;38.05;29.75;;;;;;;0.67;100.00;94528.88;6180682;23;20008;-68
2021/12/27 07:48:39;;;;;;;26.08;22.92;;;;;;;0.61;100.00;94524.97;6181763;23;20001;-67
2021/12/27 07:51:05;;;;;;;25.08;21.75;;;;;;;0.63;100.00;94527.47;6181707;23;20005;-66
2021/12/27 07:53:30;;;;;;;21.30;19.30;;;;;;;0.70;100.00;94518.28;6181831;23;20009;-66
2021/12/27 07:55:56;;;;;;;24.27;20.63;;;;;;;0.79;100.00;94527.19;6180978;23;20352;-68
2021/12/27 07:58:21;;;;;;;29.42;26.33;;;;;;;0.82;100.00;94530.38;6181547;23;20005;-69
2021/12/27 08:00:50;;;;;;;27.73;22.92;;;;;;;0.95;100.00;94542.44;6180779;23;20008;-69
2021/12/27 08:03:17;;;;;;;45.60;35.38;;;;;;;0.98;100.00;94537.03;6180279;23;20064;-68
2021/12/27 08:05:43;;;;;;;35.95;29.13;;;;;;;0.97;100.00;94551.75;6180538;23;20141;-67
2021/12/27 08:08:08;;;;;;;40.20;29.25;;;;;;;1.02;100.00;94563.56;6180182;23;20567;-68
2021/12/27 08:10:33;;;;;;;42.38;28.08;;;;;;;1.41;100.00;94582.34;6180676;23;20037;-66
2021/12/27 08:13:01;;;;;;;21.58;18.95;;;;;;;1.51;100.00;94580.69;6180970;23;20080;-67
2021/12/27 08:15:26;;;;;;;40.95;27.42;;;;;;;1.48;100.00;94588.72;6180166;23;20008;-67
2021/12/27 08:17:52;;;;;;;39.05;27.35;;;;;;;1.41;100.00;94596.09;6179861;23;20005;-68
2021/12/27 08:20:17;;;;;;;25.67;20.92;;;;;;;1.36;100.00;94598.22;6180561;23;20011;-59
2021/12/27 08:22:42;;;;;;;22.90;20.35;;;;;;;1.34;100.00;94605.28;6180710;23;20012;-59
2021/12/27 08:25:08;;;;;;;26.33;21.15;;;;;;;1.33;100.00;94608.00;6180693;23;20023;-58
2021/12/27 08:27:35;;;;;;;31.40;22.10;;;;;;;1.33;100.00;94615.78;6180482;23;20031;-59
2021/12/27 08:30:04;;;;;;;23.55;20.40;;;;;;;1.41;100.00;94621.25;6180512;23;20017;-60
2021/12/27 08:32:31;;;;;;;22.40;20.10;;;;;;;1.46;100.00;94636.47;6179422;23;20123;-60
2021/12/27 08:34:57;;;;;;;25.00;21.38;;;;;;;1.45;100.00;94632.22;6178673;23;20015;-60
2021/12/27 08:37:22;;;;;;;23.85;21.35;;;;;;;1.46;100.00;94649.44;6178319;23;20009;-59
2021/12/27 08:39:47;;;;;;;22.95;20.77;;;;;;;1.56;100.00;94642.63;6177724;23;20004;-59
2021/12/27 08:42:13;;;;;;;25.63;23.13;;;;;;;1.50;100.00;94659.47;6177912;23;20047;-58
2021/12/27 08:44:38;;;;;;;21.90;19.38;;;;;;;1.47;100.00;94657.09;6177747;23;20480;-58
2021/12/27 08:47:05;;;;;;;26.90;22.77;;;;;;;1.51;100.00;94663.72;6178107;23;20053;-60
2021/12/27 08:49:30;;;;;;;23.70;21.27;;;;;;;1.51;100.00;94661.13;6178798;23;20345;-59
2021/12/27 08:51:55;;;;;;;19.98;17.92;;;;;;;1.54;100.00;94667.84;6177900;23;19997;-59
2021/12/27 08:54:21;;;;;;;49.88;42.17;;;;;;;1.69;100.00;94669.34;6177550;23;20008;-61
2021/12/27 08:56:46;;;;;;;34.42;30.75;;;;;;;1.57;100.00;94675.41;6178473;23;20062;-60
2021/12/27 08:59:12;;;;;;;29.42;26.30;;;;;;;1.55;100.00;94682.47;6176889;23;20005;-59
2021/12/27 09:01:37;;;;;;;43.00;27.77;;;;;;;1.95;100.00;94694.28;6178752;23;20005;-59
2021/12/27 09:04:04;;;;;;;27.85;24.90;;;;;;;1.76;100.00;94689.66;6179051;23;20021;-57
2021/12/27 09:06:33;;;;;;;21.35;19.13;;;;;;;1.78;100.00;94690.34;6178355;23;20013;-56
2021/12/27 09:08:59;;;;;;;23.58;20.48;;;;;;;1.76;100.00;94685.25;6176344;23;20013;-59
2021/12/27 09:11:24;;;;;;;30.20;23.75;;;;;;;1.92;100.00;94691.94;6176282;23;20035;-57
2021/12/27 09:13:50;;;;;;;25.08;22.40;;;;;;;1.90;100.00;94671.28;6178771;23;20092;-58
2021/12/27 09:16:15;;;;;;;23.63;21.35;;;;;;;1.89;100.00;94677.44;6178797;23;20009;-57
2021/12/27 09:18:40;;;;;;;26.27;22.75;;;;;;;1.88;100.00;94675.78;6179197;23;20055;-57
2021/12/27 09:21:07;;;;;;;27.48;21.45;;;;;;;2.03;100.00;94675.56;6178024;23;20449;-57
2021/12/27 09:23:32;;;;;;;34.42;27.88;;;;;;;2.17;100.00;94669.31;6178434;23;20001;-56
2021/12/27 09:25:57;;;;;;;21.48;19.17;;;;;;;2.15;100.00;94672.06;6178557;23;20027;-59
2021/12/27 09:28:23;;;;;;;17.73;15.95;;;;;;;2.17;100.00;94670.16;6178721;23;20005;-58
2021/12/27 09:30:48;;;;;;;24.17;20.25;;;;;;;2.19;100.00;94651.84;6179022;23;20008;-57
2021/12/27 09:33:14;;;;;;;25.45;22.52;;;;;;;2.14;100.00;94654.81;6179169;23;20089;-59
2021/12/27 09:35:39;;;;;;;31.63;28.02;;;;;;;2.18;100.00;94658.00;6179079;23;20015;-58
2021/12/27 09:38:05;;;;;;;31.58;24.67;;;;;;;2.21;100.00;94655.16;6178824;23;20012;-58
2021/12/27 09:40:31;;;;;;;27.15;23.55;;;;;;;2.42;100.00;94650.13;6179288;23;20009;-58
2021/12/27 09:42:56;;;;;;;33.03;29.52;;;;;;;2.58;100.00;94661.00;6178925;23;20059;-59
2021/12/27 09:45:22;;;;;;;24.33;21.80;;;;;;;2.62;100.00;94652.94;6179192;23;20044;-59
2021/12/27 09:47:50;;;;;;;23.40;21.00;;;;;;;2.72;100.00;94638.28;6179076;23;20005;-59
2021/12/27 09:50:47;;;;;;;26.65;23.67;;;;;;;2.79;100.00;94644.66;6179036;23;20016;-59
2021/12/27 09:53:13;;;;;;;24.85;22.23;;;;;;;2.87;100.00;94638.84;6178471;23;20497;-58
2021/12/27 09:55:39;;;;;;;25.40;22.70;;;;;;;2.95;100.00;94630.44;6179103;23;20045;-59
2021/12/27 09:58:05;;;;;;;22.05;19.95;;;;;;;3.08;100.00;94625.94;6178994;23;20004;-59
2021/12/27 10:00:31;;;;;;;21.17;19.17;;;;;;;3.22;100.00;94622.22;6178958;23;20009;-59
2021/12/27 10:02:58;;;;;;;24.92;22.27;;;;;;;3.36;100.00;94625.50;6178855;23;20441;-59
2021/12/27 10:05:27;;;;;;;20.75;18.67;;;;;;;3.43;100.00;94613.66;6178751;23;20017;-59
2021/12/27 10:07:53;;;;;;;21.35;19.10;;;;;;;3.57;100.00;94628.13;6178840;23;20027;-59
2021/12/27 10:10:19;;;;;;;24.45;21.88;;;;;;;3.65;100.00;94624.91;6178630;23;20008;-60
2021/12/27 10:12:46;;;;;;;22.42;20.23;;;;;;;3.87;100.00;94622.19;6178733;23;20032;-59
2021/12/27 10:15:15;;;;;;;41.53;37.15;;;;;;;3.80;100.00;94613.25;6178279;23;20019;-56
2021/12/27 10:17:42;;;;;;;44.50;39.63;;;;;;;3.89;100.00;94618.63;6178703;23;20202;-58
2021/12/27 10:20:19;;;;;;;42.28;37.75;;;;;;;3.99;100.00;94616.94;6177358;23;20025;-60
2021/12/27 10:22:47;;;;;;;42.30;37.92;;;;;;;3.93;100.00;94623.47;6178833;23;20001;-60
2021/12/27 10:25:22;;;;;;;39.90;35.78;;;;;;;3.86;100.00;94624.91;6178831;23;20016;-59
2021/12/27 10:27:49;;;;;;;41.03;36.60;;;;;;;3.84;100.00;94619.00;6177885;23;20353;-59
2021/12/27 10:30:18;;;;;;;39.75;35.45;;;;;;;3.83;100.00;94627.75;6178980;23;20416;-59
2021/12/27 10:32:45;;;;;;;27.83;24.85;;;;;;;3.84;100.00;94637.22;6177790;23;20032;-58
2021/12/27 10:35:11;;;;;;;22.40;20.13;;;;;;;3.91;100.00;94638.38;6176589;23;20041;-59
2021/12/27 10:37:38;;;;;;;35.40;29.02;;;;;;;4.12;100.00;94643.59;6178533;23;20001;-59
2021/12/27 10:40:12;;;;;;;40.35;28.58;;;;;;;4.02;100.00;94653.13;6176524;23;19997;-60
2021/12/27 10:42:45;;;;;;;23.52;20.90;;;;;;;3.93;100.00;94664.28;6176984;23;20341;-60
2021/12/27 10:45:16;;;;;;;27.17;24.27;;;;;;;3.79;100.00;94675.84;6178262;23;20009;-59
2021/12/27 10:47:48;;;;;;;24.65;21.88;;;;;;;3.63;100.00;94676.28;6178359;23;20437;-61
2021/12/27 10:50:20;;;;;;;16.05;14.52;;;;;;;3.51;100.00;94675.47;6178235;23;20009;-60
2021/12/27 10:53:02;;;;;;;13.27;11.90;;;;;;;3.41;100.00;94676.22;6178114;23;20456;-59
2021/12/27 10:55:42;;;;;;;18.15;15.30;;;;;;;3.34;100.00;94685.47;6178282;23;20445;-59
2021/12/27 10:58:18;;;;;;;18.80;16.55;;;;;;;3.39;100.00;94691.13;6177330;23;20021;-60
2021/12/27 11:00:46;;;;;;;24.13;21.65;;;;;;;3.49;100.00;94695.59;6177811;23;20005;-60
2021/12/27 11:03:31;;;;;;;19.75;17.75;;;;;;;3.30;100.00;94704.88;6178175;23;20032;-59
2021/12/27 11:05:57;;;;;;;20.73;18.35;;;;;;;3.37;100.00;94698.22;6178290;23;20009;-60
2021/12/27 11:08:23;;;;;;;21.73;19.50;;;;;;;3.31;100.00;94706.53;6178088;23;20080;-60
2021/12/27 11:10:49;;;;;;;20.75;18.58;;;;;;;3.31;100.00;94703.91;6178198;23;20126;-60
2021/12/27 11:13:15;;;;;;;18.50;16.58;;;;;;;3.30;100.00;94704.88;6178398;22;20005;-60
2021/12/27 11:15:42;;;;;;;21.33;16.63;;;;;;;3.33;100.00;94709.00;6178561;23;20644;-59
2021/12/27 11:18:08;;;;;;;19.73;17.75;;;;;;;3.35;100.00;94707.94;6176097;23;20333;-59
2021/12/27 11:20:35;;;;;;;44.95;39.00;;;;;;;3.32;100.00;94715.97;6175704;23;20009;-59